createdAt,value
2023-05-22T00:00:41.497Z,17.37
2023-05-22T00:01:42.611Z,17.37
2023-05-22T00:02:40.659Z,17.34
2023-05-22T00:03:40.591Z,17.34
2023-05-22T00:04:40.586Z,17.34
2023-05-22T00:05:40.477Z,17.34
2023-05-22T00:06:40.434Z,17.34
2023-05-22T00:07:40.886Z,17.32
2023-05-22T00:08:43.066Z,17.31
2023-05-22T00:09:40.075Z,17.30
2023-05-22T00:10:40.193Z,17.28
2023-05-22T00:11:39.861Z,17.26
2023-05-22T00:12:40.746Z,17.25
2023-05-22T00:13:40.329Z,17.25
2023-05-22T00:14:39.993Z,17.24
2023-05-22T00:15:40.408Z,17.24
2023-05-22T00:16:40.367Z,17.23
2023-05-22T00:17:40.562Z,17.20
2023-05-22T00:18:40.245Z,17.19
2023-05-22T00:19:39.890Z,17.18
2023-05-22T00:20:41.143Z,17.17
2023-05-22T00:21:40.436Z,17.16
2023-05-22T00:22:40.282Z,17.16
2023-05-22T00:23:39.870Z,17.16
2023-05-22T00:24:45.367Z,17.14
2023-05-22T00:25:40.196Z,17.15
2023-05-22T00:26:39.959Z,17.15
2023-05-22T00:27:39.564Z,17.16
2023-05-22T00:28:40.387Z,17.15
2023-05-22T00:29:39.664Z,17.13
2023-05-22T00:30:48.464Z,17.12
2023-05-22T00:31:40.516Z,17.12
2023-05-22T00:32:40.345Z,17.11
2023-05-22T00:33:40.074Z,17.10
2023-05-22T00:34:40.557Z,17.08
2023-05-22T00:35:40.269Z,17.07
2023-05-22T00:36:40.483Z,17.04
2023-05-22T00:37:40.208Z,17.03
2023-05-22T00:38:40.631Z,17.01
2023-05-22T00:39:41.217Z,17.01
2023-05-22T00:40:41.020Z,17.00
2023-05-22T00:41:40.054Z,17
2023-05-22T00:42:40.120Z,16.97
2023-05-22T00:43:40.489Z,16.95
2023-05-22T00:44:40.416Z,16.94
2023-05-22T00:45:40.616Z,16.91
2023-05-22T00:46:40.736Z,16.91
2023-05-22T00:47:41.067Z,16.90
2023-05-22T00:48:40.176Z,16.91
2023-05-22T00:49:40.451Z,16.93
2023-05-22T00:50:40.872Z,16.92
2023-05-22T00:51:40.424Z,16.91
2023-05-22T00:52:59.767Z,16.92
2023-05-22T00:53:40.780Z,16.90
2023-05-22T00:54:40.537Z,16.90
2023-05-22T00:55:40.512Z,16.90
2023-05-22T00:56:40.310Z,16.89
2023-05-22T00:57:40.257Z,16.88
2023-05-22T00:58:40.281Z,16.85
2023-05-22T00:59:40.247Z,16.83
2023-05-22T01:00:41.533Z,16.82
2023-05-22T01:01:40.551Z,16.80
2023-05-22T01:02:45.528Z,16.79
2023-05-22T01:03:40.618Z,16.78
2023-05-22T01:04:45.610Z,16.78
2023-05-22T01:05:40.726Z,16.77
2023-05-22T01:06:40.729Z,16.77
2023-05-22T01:07:40.724Z,16.76
2023-05-22T01:08:40.506Z,16.75
2023-05-22T01:09:40.474Z,16.75
2023-05-22T01:10:40.842Z,16.73
2023-05-22T01:11:40.116Z,16.73
2023-05-22T01:12:40.114Z,16.71
2023-05-22T01:13:40.374Z,16.69
2023-05-22T01:14:40.245Z,16.68
2023-05-22T01:15:40.367Z,16.67
2023-05-22T01:16:54.446Z,16.66
2023-05-22T01:17:40.353Z,16.67
2023-05-22T01:18:40.271Z,16.68
2023-05-22T01:19:40.368Z,16.68
2023-05-22T01:20:40.637Z,16.68
2023-05-22T01:21:40.718Z,16.68
2023-05-22T01:22:40.691Z,16.67
2023-05-22T01:23:40.744Z,16.66
2023-05-22T01:24:40.787Z,16.64
2023-05-22T01:25:41.263Z,16.64
2023-05-22T01:26:40.424Z,16.63
2023-05-22T01:27:40.647Z,16.63
2023-05-22T01:28:40.972Z,16.64
2023-05-22T01:29:41.202Z,16.62
2023-05-22T01:30:40.999Z,16.63
2023-05-22T01:31:40.383Z,16.62
2023-05-22T01:32:41.105Z,16.63
2023-05-22T01:33:40.710Z,16.61
2023-05-22T01:34:40.796Z,16.62
2023-05-22T01:35:40.582Z,16.62
2023-05-22T01:36:40.403Z,16.59
2023-05-22T01:37:39.945Z,16.57
2023-05-22T01:38:40.928Z,16.55
2023-05-22T01:39:40.778Z,16.54
2023-05-22T01:40:40.839Z,16.53
2023-05-22T01:41:40.724Z,16.53
2023-05-22T01:42:40.418Z,16.52
2023-05-22T01:43:39.837Z,16.51
2023-05-22T01:44:40.544Z,16.52
2023-05-22T01:45:40.472Z,16.52
2023-05-22T01:46:40.404Z,16.52
2023-05-22T01:47:40.497Z,16.51
2023-05-22T01:48:40.374Z,16.50
2023-05-22T01:49:40.195Z,16.49
2023-05-22T01:50:40.864Z,16.48
2023-05-22T01:51:39.846Z,16.46
2023-05-22T01:52:40.772Z,16.44
2023-05-22T01:53:40.337Z,16.44
2023-05-22T01:54:40.256Z,16.43
2023-05-22T01:55:40.365Z,16.44
2023-05-22T01:56:40.269Z,16.45
2023-05-22T01:57:40.111Z,16.45
2023-05-22T01:58:40.091Z,16.45
2023-05-22T01:59:40.706Z,16.44
2023-05-22T02:00:42.982Z,16.42
2023-05-22T02:01:39.960Z,16.42
2023-05-22T02:02:40.194Z,16.40
2023-05-22T02:03:40.261Z,16.38
2023-05-22T02:04:40.582Z,16.37
2023-05-22T02:05:40.856Z,16.37
2023-05-22T02:06:40.609Z,16.37
2023-05-22T02:07:40.622Z,16.36
2023-05-22T02:08:40.273Z,16.36
2023-05-22T02:09:40.373Z,16.35
2023-05-22T02:10:40.830Z,16.34
2023-05-22T02:11:39.928Z,16.34
2023-05-22T02:12:40.933Z,16.32
2023-05-22T02:13:40.779Z,16.30
2023-05-22T02:14:40.894Z,16.29
2023-05-22T02:15:40.866Z,16.28
2023-05-22T02:16:40.514Z,16.28
2023-05-22T02:17:40.395Z,16.28
2023-05-22T02:18:40.304Z,16.28
2023-05-22T02:19:40.257Z,16.29
2023-05-22T02:20:41.125Z,16.28
2023-05-22T02:21:40.617Z,16.27
2023-05-22T02:22:40.689Z,16.26
2023-05-22T02:23:40.455Z,16.28
2023-05-22T02:24:40.445Z,16.26
2023-05-22T02:25:40.380Z,16.26
2023-05-22T02:26:40.145Z,16.25
2023-05-22T02:27:39.930Z,16.26
2023-05-22T02:28:40.721Z,16.25
2023-05-22T02:29:40.659Z,16.25
2023-05-22T02:30:41.121Z,16.24
2023-05-22T02:31:40.534Z,16.23
2023-05-22T02:32:40.828Z,16.21
2023-05-22T02:33:40.692Z,16.21
2023-05-22T02:34:40.288Z,16.22
2023-05-22T02:35:40.484Z,16.21
2023-05-22T02:36:40.301Z,16.20
2023-05-22T02:37:40.190Z,16.22
2023-05-22T02:38:40.029Z,16.23
2023-05-22T02:39:39.879Z,16.23
2023-05-22T02:40:41.052Z,16.23
2023-05-22T02:41:40.172Z,16.25
2023-05-22T02:42:39.937Z,16.26
2023-05-22T02:43:40.600Z,16.25
2023-05-22T02:44:40.479Z,16.25
2023-05-22T02:45:40.797Z,16.24
2023-05-22T02:46:40.482Z,16.23
2023-05-22T02:47:40.572Z,16.20
2023-05-22T02:48:40.507Z,16.19
2023-05-22T02:49:40.750Z,16.18
2023-05-22T02:50:41.379Z,16.17
2023-05-22T02:51:45.692Z,16.16
2023-05-22T02:52:41.111Z,16.16
2023-05-22T02:53:40.001Z,16.15
2023-05-22T02:54:39.987Z,16.14
2023-05-22T02:55:40.395Z,16.13
2023-05-22T02:56:40.259Z,16.12
2023-05-22T02:57:40.257Z,16.10
2023-05-22T02:58:40.248Z,16.08
2023-05-22T02:59:40.229Z,16.07
2023-05-22T03:00:42.003Z,16.06
2023-05-22T03:01:54.688Z,16.05
2023-05-22T03:02:40.843Z,16.04
2023-05-22T03:03:41.201Z,16.04
2023-05-22T03:04:40.307Z,16.03
2023-05-22T03:05:40.900Z,16.02
2023-05-22T03:06:40.741Z,16.01
2023-05-22T03:07:40.985Z,16.01
2023-05-22T03:08:40.465Z,16.00
2023-05-22T03:09:40.339Z,15.99
2023-05-22T03:10:40.752Z,15.98
2023-05-22T03:11:40.604Z,15.98
2023-05-22T03:12:40.396Z,15.97
2023-05-22T03:13:39.948Z,15.96
2023-05-22T03:14:40.827Z,15.95
2023-05-22T03:15:41.044Z,15.94
2023-05-22T03:16:40.292Z,15.93
2023-05-22T03:17:40.340Z,15.91
2023-05-22T03:18:43.095Z,15.90
2023-05-22T03:19:40.434Z,15.89
2023-05-22T03:20:40.675Z,15.89
2023-05-22T03:21:40.458Z,15.90
2023-05-22T03:22:40.290Z,15.90
2023-05-22T03:23:59.032Z,15.91
2023-05-22T03:24:39.843Z,15.90
2023-05-22T03:25:59.639Z,15.89
2023-05-22T03:26:40.270Z,15.88
2023-05-22T03:27:39.946Z,15.85
2023-05-22T03:28:40.826Z,15.83
2023-05-22T03:29:45.531Z,15.83
2023-05-22T03:30:40.929Z,15.82
2023-05-22T03:32:02.497Z,15.84
2023-05-22T03:32:40.892Z,15.83
2023-05-22T03:34:03.528Z,15.82
2023-05-22T03:34:40.784Z,15.81
2023-05-22T03:35:40.513Z,15.81
2023-05-22T03:36:40.248Z,15.81
2023-05-22T03:37:54.141Z,15.81
2023-05-22T03:38:39.999Z,15.81
2023-05-22T03:39:40.006Z,15.81
2023-05-22T03:40:40.839Z,15.82
2023-05-22T03:41:40.358Z,15.81
2023-05-22T03:42:40.407Z,15.81
2023-05-22T03:43:41.538Z,15.80
2023-05-22T03:44:40.566Z,15.80
2023-05-22T03:45:40.863Z,15.80
2023-05-22T03:46:41.351Z,15.82
2023-05-22T03:47:40.881Z,15.82
2023-05-22T03:48:40.662Z,15.82
2023-05-22T03:49:40.571Z,15.84
2023-05-22T03:50:40.930Z,15.90
2023-05-22T03:51:40.449Z,15.94
2023-05-22T03:52:40.344Z,15.94
2023-05-22T03:53:40.275Z,15.93
2023-05-22T03:54:40.685Z,15.93
2023-05-22T03:55:40.709Z,15.93
2023-05-22T03:56:40.582Z,15.93
2023-05-22T03:57:40.462Z,15.92
2023-05-22T03:58:40.533Z,15.93
2023-05-22T03:59:59.546Z,15.92
2023-05-22T04:00:42.804Z,15.92
2023-05-22T04:01:40.977Z,15.91
2023-05-22T04:02:41.153Z,15.92
2023-05-22T04:03:40.559Z,15.93
2023-05-22T04:04:40.514Z,15.92
2023-05-22T04:05:40.697Z,15.91
2023-05-22T04:06:40.495Z,15.91
2023-05-22T04:07:40.499Z,15.93
2023-05-22T04:08:40.673Z,15.93
2023-05-22T04:09:40.700Z,15.94
2023-05-22T04:10:41.111Z,15.94
2023-05-22T04:11:40.401Z,15.96
2023-05-22T04:12:40.673Z,15.97
2023-05-22T04:13:40.539Z,15.98
2023-05-22T04:14:40.949Z,15.98
2023-05-22T04:15:41.667Z,15.99
2023-05-22T04:16:41.762Z,15.99
2023-05-22T04:18:40.904Z,15.98
2023-05-22T04:19:40.998Z,15.96
2023-05-22T04:20:40.824Z,15.95
2023-05-22T04:21:40.281Z,15.94
2023-05-22T04:22:40.426Z,15.94
2023-05-22T04:23:40.768Z,15.94
2023-05-22T04:24:40.815Z,15.94
2023-05-22T04:25:40.949Z,15.94
2023-05-22T04:26:42.606Z,15.92
2023-05-22T04:27:40.710Z,15.90
2023-05-22T04:28:40.789Z,15.89
2023-05-22T04:29:40.564Z,15.89
2023-05-22T04:30:41.269Z,15.89
2023-05-22T04:31:40.818Z,15.89
2023-05-22T04:32:42.743Z,15.91
2023-05-22T04:33:40.517Z,15.91
2023-05-22T04:34:40.544Z,15.89
2023-05-22T04:35:41.065Z,15.89
2023-05-22T04:36:40.103Z,15.89
2023-05-22T04:37:40.586Z,15.89
2023-05-22T04:38:41.129Z,15.91
2023-05-22T04:39:40.946Z,15.94
2023-05-22T04:40:41.426Z,15.94
2023-05-22T04:41:40.453Z,15.94
2023-05-22T04:42:40.409Z,15.93
2023-05-22T04:43:40.730Z,15.93
2023-05-22T04:44:40.957Z,15.94
2023-05-22T04:45:40.972Z,15.93
2023-05-22T04:46:41.124Z,15.93
2023-05-22T04:47:40.637Z,15.93
2023-05-22T04:48:40.689Z,15.93
2023-05-22T04:49:40.778Z,15.93
2023-05-22T04:50:41.476Z,15.92
2023-05-22T04:51:40.756Z,15.92
2023-05-22T04:52:40.992Z,15.92
2023-05-22T04:53:40.814Z,15.92
2023-05-22T04:54:40.973Z,15.92
2023-05-22T04:55:41.439Z,15.92
2023-05-22T04:56:52.723Z,15.92
2023-05-22T04:57:40.962Z,15.94
2023-05-22T04:58:40.931Z,15.96
2023-05-22T04:59:41.220Z,15.97
2023-05-22T05:00:42.026Z,15.98
2023-05-22T05:01:40.729Z,15.99
2023-05-22T05:02:40.975Z,16.01
2023-05-22T05:03:40.783Z,16.01
2023-05-22T05:04:41.023Z,16.01
2023-05-22T05:05:40.723Z,16.02
2023-05-22T05:06:40.844Z,16.03
2023-05-22T05:07:41.153Z,16.03
2023-05-22T05:08:41.179Z,16.04
2023-05-22T05:09:41.095Z,16.06
2023-05-22T05:10:41.294Z,16.05
2023-05-22T05:11:40.832Z,16.06
2023-05-22T05:12:40.673Z,16.10
2023-05-22T05:13:40.996Z,16.14
2023-05-22T05:14:40.565Z,16.15
2023-05-22T05:15:41.272Z,16.15
2023-05-22T05:16:40.448Z,16.18
2023-05-22T05:17:41.283Z,16.20
2023-05-22T05:18:40.681Z,16.20
2023-05-22T05:19:41.292Z,16.22
2023-05-22T05:20:41.126Z,16.26
2023-05-22T05:21:40.622Z,16.27
2023-05-22T05:22:41.024Z,16.29
2023-05-22T05:23:40.507Z,16.30
2023-05-22T05:24:40.867Z,16.29
2023-05-22T05:25:40.917Z,16.30
2023-05-22T05:26:41.095Z,16.30
2023-05-22T05:27:40.493Z,16.30
2023-05-22T05:28:40.394Z,16.31
2023-05-22T05:29:40.507Z,16.31
2023-05-22T05:30:41.367Z,16.32
2023-05-22T05:31:40.926Z,16.32
2023-05-22T05:32:41.251Z,16.33
2023-05-22T05:33:40.786Z,16.33
2023-05-22T05:34:40.932Z,16.34
2023-05-22T05:35:42.843Z,16.37
2023-05-22T05:36:40.348Z,16.38
2023-05-22T05:37:40.701Z,16.38
2023-05-22T05:38:40.694Z,16.37
2023-05-22T05:39:41.015Z,16.37
2023-05-22T05:40:40.555Z,16.37
2023-05-22T05:41:40.799Z,16.37
2023-05-22T05:42:41.004Z,16.37
2023-05-22T05:43:40.149Z,16.37
2023-05-22T05:44:40.499Z,16.37
2023-05-22T05:45:41.177Z,16.37
2023-05-22T05:46:40.967Z,16.38
2023-05-22T05:47:40.872Z,16.42
2023-05-22T05:48:41.236Z,16.43
2023-05-22T05:49:40.557Z,16.43
2023-05-22T05:50:41.413Z,16.43
2023-05-22T05:51:40.765Z,16.45
2023-05-22T05:52:40.768Z,16.47
2023-05-22T05:53:40.978Z,16.48
2023-05-22T05:54:40.936Z,16.49
2023-05-22T05:55:41.448Z,16.51
2023-05-22T05:56:40.808Z,16.52
2023-05-22T05:57:41.037Z,16.53
2023-05-22T05:58:40.601Z,16.51
2023-05-22T05:59:40.769Z,16.53
2023-05-22T06:00:41.867Z,16.56
2023-05-22T06:01:40.870Z,16.59
2023-05-22T06:02:40.983Z,16.61
2023-05-22T06:03:40.902Z,16.61
2023-05-22T06:04:41.193Z,16.62
2023-05-22T06:05:40.956Z,16.63
2023-05-22T06:06:40.495Z,16.65
2023-05-22T06:07:40.867Z,16.67
2023-05-22T06:08:54.819Z,16.69
2023-05-22T06:09:41.325Z,16.73
2023-05-22T06:10:54.749Z,16.77
2023-05-22T06:11:40.768Z,16.77
2023-05-22T06:12:41.017Z,16.80
2023-05-22T06:13:40.340Z,16.86
2023-05-22T06:14:40.455Z,16.88
2023-05-22T06:15:40.861Z,16.88
2023-05-22T06:16:40.924Z,16.90
2023-05-22T06:17:40.637Z,16.92
2023-05-22T06:18:41.067Z,16.94
2023-05-22T06:19:40.745Z,16.95
2023-05-22T06:20:40.953Z,16.98
2023-05-22T06:21:40.394Z,17
2023-05-22T06:22:40.623Z,16.96
2023-05-22T06:23:40.767Z,16.97
2023-05-22T06:24:41.149Z,16.95
2023-05-22T06:25:40.712Z,16.95
2023-05-22T06:26:40.877Z,16.96
2023-05-22T06:27:41.257Z,16.97
2023-05-22T06:28:40.685Z,17.00
2023-05-22T06:29:40.630Z,17.02
2023-05-22T06:30:56.035Z,17.03
2023-05-22T06:31:40.697Z,17.03
2023-05-22T06:32:41.472Z,17.04
2023-05-22T06:33:41.032Z,17.07
2023-05-22T06:34:40.680Z,17.06
2023-05-22T06:35:41.399Z,17.04
2023-05-22T06:36:40.509Z,17.01
2023-05-22T06:37:40.629Z,17.01
2023-05-22T06:38:40.903Z,17.01
2023-05-22T06:39:41.014Z,17.02
2023-05-22T06:40:40.784Z,17.04
2023-05-22T06:41:40.423Z,17.09
2023-05-22T06:42:41.005Z,17.11
2023-05-22T06:43:40.381Z,17.15
2023-05-22T06:44:40.649Z,17.15
2023-05-22T06:45:41.248Z,17.18
2023-05-22T06:46:42.280Z,17.18
2023-05-22T06:47:40.805Z,17.19
2023-05-22T06:48:41.048Z,17.21
2023-05-22T06:49:40.721Z,17.21
2023-05-22T06:50:41.261Z,17.22
2023-05-22T06:51:40.734Z,17.22
2023-05-22T06:52:41.203Z,17.23
2023-05-22T06:53:40.367Z,17.25
2023-05-22T06:54:40.736Z,17.29
2023-05-22T06:55:41.426Z,17.31
2023-05-22T06:56:40.634Z,17.32
2023-05-22T06:57:41.422Z,17.37
2023-05-22T06:58:41.081Z,17.43
2023-05-22T06:59:40.709Z,17.46
2023-05-22T07:00:42.517Z,17.51
2023-05-22T07:01:41.159Z,17.55
2023-05-22T07:02:40.853Z,17.58
2023-05-22T07:03:41.427Z,17.59
2023-05-22T07:04:41.256Z,17.62
2023-05-22T07:05:40.938Z,17.64
2023-05-22T07:06:40.904Z,17.71
2023-05-22T07:07:41.097Z,17.69
2023-05-22T07:08:40.628Z,17.69
2023-05-22T07:09:41.080Z,17.68
2023-05-22T07:10:41.106Z,17.70
2023-05-22T07:11:40.492Z,17.70
2023-05-22T07:12:40.487Z,17.70
2023-05-22T07:13:40.689Z,17.72
2023-05-22T07:14:40.930Z,17.75
2023-05-22T07:15:41.206Z,17.77
2023-05-22T07:17:40.932Z,17.80
2023-05-22T07:18:41.056Z,17.79
2023-05-22T07:19:40.571Z,17.82
2023-05-22T07:20:41.396Z,17.86
2023-05-22T07:21:40.750Z,17.84
2023-05-22T07:22:40.611Z,17.87
2023-05-22T07:23:42.226Z,17.88
2023-05-22T07:24:40.582Z,17.90
2023-05-22T07:25:41.022Z,17.93
2023-05-22T07:26:40.370Z,17.96
2023-05-22T07:27:40.146Z,18
2023-05-22T07:28:40.563Z,18.02
2023-05-22T07:29:40.585Z,18.02
2023-05-22T07:30:41.702Z,18.00
2023-05-22T07:31:41.465Z,17.99
2023-05-22T07:32:41.534Z,18.00
2023-05-22T07:33:45.734Z,18.04
2023-05-22T07:34:40.916Z,18.05
2023-05-22T07:35:41.099Z,18.08
2023-05-22T07:36:40.415Z,18.10
2023-05-22T07:37:40.562Z,18.15
2023-05-22T07:38:40.832Z,18.19
2023-05-22T07:39:41.114Z,18.22
2023-05-22T07:40:42.472Z,18.30
2023-05-22T07:41:40.870Z,18.36
2023-05-22T07:42:41.201Z,18.41
2023-05-22T07:43:40.580Z,18.43
2023-05-22T07:44:40.726Z,18.44
2023-05-22T07:45:49.331Z,18.47
2023-05-22T07:46:40.738Z,18.49
2023-05-22T07:47:41.026Z,18.46
2023-05-22T07:48:40.680Z,18.50
2023-05-22T07:49:41.141Z,18.53
2023-05-22T07:50:41.140Z,18.53
2023-05-22T07:51:41.353Z,18.60
2023-05-22T07:52:40.962Z,18.66
2023-05-22T07:53:41.183Z,18.69
2023-05-22T07:54:42.327Z,18.77
2023-05-22T07:55:41.368Z,18.86
2023-05-22T07:56:40.999Z,18.84
2023-05-22T07:57:40.482Z,18.83
2023-05-22T07:58:40.529Z,18.83
2023-05-22T07:59:40.420Z,18.84
2023-05-22T08:00:41.852Z,18.82
2023-05-22T08:01:57.359Z,18.77
2023-05-22T08:02:40.778Z,18.78
2023-05-22T08:03:56.075Z,18.82
2023-05-22T08:04:40.964Z,18.84
2023-05-22T08:05:55.228Z,18.88
2023-05-22T08:06:40.726Z,18.94
2023-05-22T08:07:40.963Z,18.95
2023-05-22T08:08:40.530Z,18.89
2023-05-22T08:09:41.171Z,18.85
2023-05-22T08:10:58.273Z,18.83
2023-05-22T08:11:40.832Z,18.85
2023-05-22T08:12:40.926Z,18.90
2023-05-22T08:13:41.123Z,18.95
2023-05-22T08:14:40.690Z,18.95
2023-05-22T08:15:41.214Z,18.97
2023-05-22T08:16:40.972Z,18.98
2023-05-22T08:17:45.890Z,19.02
2023-05-22T08:18:41.240Z,19.05
2023-05-22T08:20:04.468Z,19.09
2023-05-22T08:20:42.177Z,19.07
2023-05-22T08:21:40.919Z,19.08
2023-05-22T08:22:41.119Z,19.12
2023-05-22T08:23:40.713Z,19.20
2023-05-22T08:24:41.174Z,19.20
2023-05-22T08:25:40.808Z,19.15
2023-05-22T08:26:40.990Z,19.11
2023-05-22T08:27:40.587Z,19.14
2023-05-22T08:28:40.585Z,19.17
2023-05-22T08:29:40.817Z,19.20
2023-05-22T08:30:41.696Z,19.17
2023-05-22T08:31:40.844Z,19.12
2023-05-22T08:32:41.265Z,19.13
2023-05-22T08:33:54.697Z,19.15
2023-05-22T08:34:40.633Z,19.20
2023-05-22T08:35:40.932Z,19.23
2023-05-22T08:36:40.940Z,19.25
2023-05-22T08:37:41.246Z,19.25
2023-05-22T08:38:40.881Z,19.25
2023-05-22T08:39:41.104Z,19.26
2023-05-22T08:40:42.573Z,19.26
2023-05-22T08:41:40.776Z,19.33
2023-05-22T08:42:40.861Z,19.39
2023-05-22T08:43:54.746Z,19.38
2023-05-22T08:44:41.139Z,19.37
2023-05-22T08:46:00.264Z,19.34
2023-05-22T08:46:40.479Z,19.32
2023-05-22T08:47:40.726Z,19.38
2023-05-22T08:48:40.917Z,19.48
2023-05-22T08:49:41.395Z,19.49
2023-05-22T08:50:41.295Z,19.44
2023-05-22T08:51:40.909Z,19.46
2023-05-22T08:52:41.544Z,19.50
2023-05-22T08:53:41.230Z,19.47
2023-05-22T08:54:40.761Z,19.45
2023-05-22T08:55:41.674Z,19.39
2023-05-22T08:57:40.868Z,19.47
2023-05-22T08:58:41.602Z,19.54
2023-05-22T08:59:41.268Z,19.51
2023-05-22T09:00:41.860Z,19.53
2023-05-22T09:01:41.005Z,19.50
2023-05-22T09:02:40.869Z,19.51
2023-05-22T09:03:41.276Z,19.55
2023-05-22T09:04:40.946Z,19.53
2023-05-22T09:05:41.522Z,19.55
2023-05-22T09:06:41.139Z,19.61
2023-05-22T09:07:40.741Z,19.66
2023-05-22T09:08:40.812Z,19.67
2023-05-22T09:09:41.164Z,19.67
2023-05-22T09:10:41.587Z,19.64
2023-05-22T09:11:41.063Z,19.67
2023-05-22T09:12:40.908Z,19.67
2023-05-22T09:13:41.543Z,19.71
2023-05-22T09:14:40.794Z,19.79
2023-05-22T09:15:41.557Z,19.82
2023-05-22T09:16:41.012Z,19.79
2023-05-22T09:17:40.840Z,19.81
2023-05-22T09:18:41.126Z,19.80
2023-05-22T09:19:41.077Z,19.78
2023-05-22T09:20:41.041Z,19.83
2023-05-22T09:21:46.463Z,19.92
2023-05-22T09:22:41.147Z,19.92
2023-05-22T09:23:41.037Z,19.92
2023-05-22T09:24:41.089Z,19.92
2023-05-22T09:25:40.963Z,19.93
2023-05-22T09:26:41.246Z,19.89
2023-05-22T09:27:40.583Z,19.83
2023-05-22T09:28:41.065Z,19.81
2023-05-22T09:29:40.937Z,19.84
2023-05-22T09:30:41.999Z,19.88
2023-05-22T09:31:40.702Z,19.87
2023-05-22T09:32:41.249Z,19.88
2023-05-22T09:33:40.968Z,19.91
2023-05-22T09:34:40.885Z,20.06
2023-05-22T09:35:41.473Z,20.11
2023-05-22T09:36:41.010Z,20.09
2023-05-22T09:37:40.761Z,20.08
2023-05-22T09:38:40.803Z,20.10
2023-05-22T09:39:40.918Z,20.03
2023-05-22T09:40:41.586Z,20.02
2023-05-22T09:41:41.045Z,19.98
2023-05-22T09:42:40.723Z,20.03
2023-05-22T09:43:40.549Z,20.11
2023-05-22T09:44:41.261Z,20.16
2023-05-22T09:45:41.261Z,20.17
2023-05-22T09:46:40.960Z,20.17
2023-05-22T09:47:41.067Z,20.15
2023-05-22T09:48:40.852Z,20.12
2023-05-22T09:49:41.291Z,20.13
2023-05-22T09:50:41.021Z,20.11
2023-05-22T09:51:40.844Z,20.15
2023-05-22T09:52:41.375Z,20.09
2023-05-22T09:53:41.008Z,20.07
2023-05-22T09:54:40.452Z,20.07
2023-05-22T09:55:41.299Z,20.11
2023-05-22T09:56:55.436Z,20.09
2023-05-22T09:57:41.133Z,20.06
2023-05-22T09:58:40.790Z,20.08
2023-05-22T09:59:41.342Z,20.10
2023-05-22T10:00:42.078Z,20.06
2023-05-22T10:01:41.025Z,20.07
2023-05-22T10:02:45.962Z,20.09
2023-05-22T10:03:40.617Z,20.14
2023-05-22T10:04:41.390Z,20.12
2023-05-22T10:05:41.361Z,20.14
2023-05-22T10:06:46.413Z,20.15
2023-05-22T10:07:40.675Z,20.17
2023-05-22T10:08:42.767Z,20.18
2023-05-22T10:09:42.063Z,20.19
2023-05-22T10:10:49.354Z,20.20
2023-05-22T10:11:41.024Z,20.10
2023-05-22T10:12:48.766Z,20.13
2023-05-22T10:13:41.025Z,20.19
2023-05-22T10:14:40.712Z,20.23
2023-05-22T10:15:41.310Z,20.22
2023-05-22T10:16:41.224Z,20.18
2023-05-22T10:17:40.846Z,20.17
2023-05-22T10:18:41.023Z,20.16
2023-05-22T10:19:42.354Z,20.15
2023-05-22T10:20:41.690Z,20.16
2023-05-22T10:21:41.536Z,20.19
2023-05-22T10:22:55.079Z,20.20
2023-05-22T10:23:40.470Z,20.22
2023-05-22T10:24:40.902Z,20.25
2023-05-22T10:25:41.656Z,20.25
2023-05-22T10:26:55.136Z,20.21
2023-05-22T10:27:40.971Z,20.23
2023-05-22T10:28:40.700Z,20.23
2023-05-22T10:29:41.314Z,20.20
2023-05-22T10:30:41.916Z,20.24
2023-05-22T10:31:41.228Z,20.27
2023-05-22T10:33:01.017Z,20.29
2023-05-22T10:33:41.840Z,20.33
2023-05-22T10:34:42.144Z,20.38
2023-05-22T10:35:41.847Z,20.39
2023-05-22T10:37:16.493Z,20.34
2023-05-22T10:37:42.546Z,20.34
2023-05-22T10:38:40.947Z,20.34
2023-05-22T10:39:41.710Z,20.34
2023-05-22T10:40:41.410Z,20.36
2023-05-22T10:41:40.765Z,20.38
2023-05-22T10:42:59.903Z,20.40
2023-05-22T10:43:41.130Z,20.43
2023-05-22T10:44:40.750Z,20.45
2023-05-22T10:45:43.238Z,20.46
2023-05-22T10:46:46.101Z,20.46
2023-05-22T10:47:41.039Z,20.45
2023-05-22T10:48:41.068Z,20.43
2023-05-22T10:49:40.918Z,20.44
2023-05-22T10:50:41.940Z,20.41
2023-05-22T10:51:41.089Z,20.42
2023-05-22T10:52:41.283Z,20.40
2023-05-22T10:53:41.484Z,20.39
2023-05-22T10:54:40.867Z,20.38
2023-05-22T10:55:41.409Z,20.39
2023-05-22T10:56:42.013Z,20.47
2023-05-22T10:57:41.018Z,20.51
2023-05-22T10:58:40.736Z,20.5
2023-05-22T10:59:41.393Z,20.51
2023-05-22T11:00:42.211Z,20.54
2023-05-22T11:01:41.255Z,20.57
2023-05-22T11:02:41.550Z,20.58
2023-05-22T11:03:41.032Z,20.60
2023-05-22T11:04:41.164Z,20.64
2023-05-22T11:05:41.192Z,20.59
2023-05-22T11:06:41.059Z,20.50
2023-05-22T11:07:41.024Z,20.47
2023-05-22T11:08:41.545Z,20.53
2023-05-22T11:09:41.513Z,20.55
2023-05-22T11:10:41.423Z,20.58
2023-05-22T11:11:41.448Z,20.57
2023-05-22T11:12:41.580Z,20.56
2023-05-22T11:13:44.813Z,20.56
2023-05-22T11:14:41.591Z,20.54
2023-05-22T11:15:41.886Z,20.55
2023-05-22T11:16:41.558Z,20.55
2023-05-22T11:17:41.462Z,20.57
2023-05-22T11:18:40.644Z,20.60
2023-05-22T11:19:41.360Z,20.63
2023-05-22T11:20:41.655Z,20.65
2023-05-22T11:21:41.087Z,20.67
2023-05-22T11:22:40.948Z,20.71
2023-05-22T11:23:41.277Z,20.76
2023-05-22T11:24:40.692Z,20.75
2023-05-22T11:25:41.564Z,20.70
2023-05-22T11:26:43.913Z,20.71
2023-05-22T11:27:41.570Z,20.72
2023-05-22T11:28:41.125Z,20.73
2023-05-22T11:29:40.597Z,20.70
2023-05-22T11:30:41.890Z,20.72
2023-05-22T11:31:41.201Z,20.74
2023-05-22T11:32:40.844Z,20.74
2023-05-22T11:33:41.505Z,20.71
2023-05-22T11:34:40.837Z,20.69
2023-05-22T11:35:41.622Z,20.65
2023-05-22T11:36:40.923Z,20.63
2023-05-22T11:37:41.115Z,20.63
2023-05-22T11:38:40.616Z,20.66
2023-05-22T11:39:40.911Z,20.63
2023-05-22T11:40:41.674Z,20.63
2023-05-22T11:41:41.090Z,20.66
2023-05-22T11:42:40.898Z,20.67
2023-05-22T11:43:41.641Z,20.65
2023-05-22T11:44:41.415Z,20.67
2023-05-22T11:45:41.376Z,20.64
2023-05-22T11:46:41.229Z,20.65
2023-05-22T11:47:41.150Z,20.70
2023-05-22T11:48:41.060Z,20.68
2023-05-22T11:49:40.970Z,20.71
2023-05-22T11:50:58.200Z,20.69
2023-05-22T11:51:40.890Z,20.67
2023-05-22T11:52:41.530Z,20.65
2023-05-22T11:53:41.335Z,20.67
2023-05-22T11:54:41.061Z,20.70
2023-05-22T11:55:41.020Z,20.76
2023-05-22T11:56:41.208Z,20.80
2023-05-22T11:57:40.983Z,20.82
2023-05-22T11:58:41.089Z,20.83
2023-05-22T11:59:40.881Z,20.84
2023-05-22T12:00:43.011Z,20.85
2023-05-22T12:01:41.012Z,20.85
2023-05-22T12:02:41.166Z,20.88
2023-05-22T12:03:42.230Z,20.90
2023-05-22T12:05:41.085Z,20.92
2023-05-22T12:06:40.778Z,20.93
2023-05-22T12:07:41.280Z,20.94
2023-05-22T12:08:41.142Z,20.93
2023-05-22T12:09:40.792Z,20.90
2023-05-22T12:10:41.857Z,20.92
2023-05-22T12:11:41.128Z,20.93
2023-05-22T12:12:41.105Z,20.92
2023-05-22T12:13:40.891Z,20.90
2023-05-22T12:14:41.329Z,20.93
2023-05-22T12:15:41.210Z,20.95
2023-05-22T12:16:40.700Z,20.99
2023-05-22T12:17:41.183Z,21.03
2023-05-22T12:18:40.947Z,21.06
2023-05-22T12:19:41.089Z,21.09
2023-05-22T12:20:41.937Z,21.10
2023-05-22T12:21:41.593Z,21.13
2023-05-22T12:22:41.179Z,21.11
2023-05-22T12:23:40.811Z,21.07
2023-05-22T12:24:41.317Z,21.08
2023-05-22T12:25:46.083Z,21.07
2023-05-22T12:26:40.812Z,21.06
2023-05-22T12:27:41.221Z,21.10
2023-05-22T12:28:40.723Z,21.15
2023-05-22T12:29:41.250Z,21.14
2023-05-22T12:30:41.311Z,21.11
2023-05-22T12:31:40.914Z,21.13
2023-05-22T12:32:41.842Z,21.13
2023-05-22T12:33:41.101Z,21.14
2023-05-22T12:34:40.875Z,21.17
2023-05-22T12:35:41.528Z,21.18
2023-05-22T12:36:41.366Z,21.19
2023-05-22T12:37:41.105Z,21.19
2023-05-22T12:38:40.911Z,21.17
2023-05-22T12:39:41.180Z,21.18
2023-05-22T12:40:41.212Z,21.21
2023-05-22T12:41:40.879Z,21.21
2023-05-22T12:42:41.199Z,21.23
2023-05-22T12:43:40.888Z,21.25
2023-05-22T12:44:41.247Z,21.24
2023-05-22T12:45:41.281Z,21.27
2023-05-22T12:46:41.099Z,21.28
2023-05-22T12:47:41.127Z,21.28
2023-05-22T12:48:40.719Z,21.29
2023-05-22T12:49:41.501Z,21.27
2023-05-22T12:50:41.454Z,21.23
2023-05-22T12:51:41.495Z,21.21
2023-05-22T12:52:41.033Z,21.21
2023-05-22T12:53:40.703Z,21.20
2023-05-22T12:54:41.306Z,21.20
2023-05-22T12:55:41.021Z,21.18
2023-05-22T12:56:41.135Z,21.21
2023-05-22T12:58:00.176Z,21.25